Time;durP1;ratioP1;P1;durP2;ratioP2;P2;SDS_P1;SDS_P2;PMS_P1;PMS_P2;Temp;Humidity;BMP_temperature;BMP_pressure;BME280_temperature;BME280_humidity;BME280_pressure;Samples;Min_cycle;Max_cycle;Signal;HPM_P1;HPM_P2
2024/02/22 00:00:39;;;;;;;1.00;1.00;;;5.70;99.90;;;;;;5050588;28;20557;-82
2024/02/22 00:03:06;;;;;;;3.65;3.35;;;5.70;99.90;;;;;;5065214;28;20176;-81
2024/02/22 00:05:33;;;;;;;1.65;1.35;;;5.70;99.90;;;;;;5066220;28;20219;-82
2024/02/22 00:08:00;;;;;;;0.50;0.50;;;5.70;99.90;;;;;;5055845;28;20234;-79
2024/02/22 00:10:29;;;;;;;0.50;0.50;;;6.10;99.90;;;;;;5045958;28;20208;-79
2024/02/22 00:12:58;;;;;;;0.45;0.45;;;6.10;99.90;;;;;;5049494;28;20396;-79
2024/02/22 00:15:26;;;;;;;1.42;1.33;;;6.20;99.90;;;;;;5044771;28;20227;-81
2024/02/22 00:17:53;;;;;;;1.02;0.80;;;6.20;99.90;;;;;;5051179;28;20199;-79
2024/02/22 00:20:20;;;;;;;1.35;1.33;;;6.30;99.90;;;;;;5057803;28;20205;-79
2024/02/22 00:22:47;;;;;;;0.70;0.70;;;6.30;99.90;;;;;;5059484;28;20511;-81
2024/02/22 00:25:15;;;;;;;1.23;1.23;;;6.30;99.90;;;;;;5056394;28;20209;-81
2024/02/22 00:27:47;;;;;;;1.05;1.00;;;6.10;99.90;;;;;;5054914;28;20231;-80
2024/02/22 00:30:14;;;;;;;0.43;0.43;;;6.00;99.90;;;;;;5041594;28;20196;-80
2024/02/22 00:32:44;;;;;;;0.80;0.80;;;6.00;99.90;;;;;;5043014;28;20261;-80
2024/02/22 00:35:11;;;;;;;1.70;1.60;;;6.00;99.90;;;;;;5061965;28;20220;-79
2024/02/22 00:37:38;;;;;;;1.50;1.40;;;6.10;99.90;;;;;;5056331;28;20412;-81
2024/02/22 00:40:08;;;;;;;1.45;1.38;;;6.00;99.90;;;;;;5054203;28;20212;-80
2024/02/22 00:42:35;;;;;;;1.30;1.30;;;6.00;99.90;;;;;;5054047;28;20201;-81
2024/02/22 00:45:03;;;;;;;0.90;0.90;;;6.00;99.90;;;;;;5049682;28;20492;-81
2024/02/22 00:47:30;;;;;;;0.80;0.80;;;5.80;99.90;;;;;;5045627;28;20229;-79
2024/02/22 00:49:57;;;;;;;2.03;1.70;;;5.70;99.90;;;;;;5050438;28;20526;-81
2024/02/22 00:52:24;;;;;;;0.50;0.50;;;5.80;99.90;;;;;;5054362;28;20279;-80
2024/02/22 00:54:51;;;;;;;2.45;2.25;;;5.80;99.90;;;;;;5045494;28;20268;-80
2024/02/22 00:57:18;;;;;;;1.33;1.23;;;5.80;99.90;;;;;;5047646;28;20225;-82
2024/02/22 00:59:45;;;;;;;1.23;1.23;;;5.90;99.90;;;;;;5043038;28;20201;-79
2024/02/22 01:02:12;;;;;;;0.70;0.70;;;6.00;99.90;;;;;;5042580;28;20221;-80
2024/02/22 01:31:12;;;;;;;0.75;0.75;;;6.60;99.90;;;;;;5049007;28;20187;-79
2024/02/22 01:33:39;;;;;;;2.55;2.35;;;6.40;99.90;;;;;;5055589;28;20208;-81
2024/02/22 01:36:07;;;;;;;8.23;1.52;;;6.70;99.90;;;;;;5032458;28;20287;-80
2024/02/22 01:38:35;;;;;;;2.90;2.70;;;6.80;99.90;;;;;;5048990;28;20226;-80
2024/02/22 01:41:02;;;;;;;0.57;0.57;;;6.70;99.90;;;;;;5048692;28;20280;-79
2024/02/22 01:43:30;;;;;;;1.85;1.75;;;6.60;99.90;;;;;;5052984;28;20216;-80
2024/02/22 01:45:57;;;;;;;0.50;0.50;;;6.70;99.90;;;;;;5034407;28;20540;-80
2024/02/22 01:48:24;;;;;;;0.80;0.80;;;6.70;99.90;;;;;;5054015;28;20223;-80
2024/02/22 01:50:54;;;;;;;1.15;1.15;;;6.60;99.90;;;;;;5042299;28;20203;-79
2024/02/22 01:53:24;;;;;;;1.55;1.55;;;6.60;99.90;;;;;;5053156;28;20532;-81
2024/02/22 01:55:59;;;;;;;1.52;1.52;;;6.60;99.90;;;;;;5037650;28;20239;-80
2024/02/22 01:58:31;;;;;;;0.52;0.52;;;6.60;99.90;;;;;;5057762;28;20199;-79
2024/02/22 02:01:00;;;;;;;0.47;0.47;;;6.60;99.90;;;;;;5039555;28;20486;-80
2024/02/22 02:03:28;;;;;;;0.50;0.50;;;6.90;99.90;;;;;;5050296;28;20470;-80
2024/02/22 02:05:56;;;;;;;3.80;3.50;;;7.00;99.90;;;;;;5052491;28;20264;-80
2024/02/22 02:08:24;;;;;;;5.88;1.67;;;7.00;99.90;;;;;;5060881;28;20210;-79
2024/02/22 02:10:51;;;;;;;0.60;0.60;;;7.10;99.90;;;;;;5052821;28;20439;-81
2024/02/22 02:13:18;;;;;;;0.85;0.85;;;6.90;99.90;;;;;;5048386;28;20235;-81
2024/02/22 02:15:45;;;;;;;0.85;0.85;;;6.90;99.90;;;;;;5055026;28;20401;-80
2024/02/22 02:18:12;;;;;;;0.50;0.50;;;7.00;99.90;;;;;;5040507;28;20216;-82
2024/02/22 02:21:17;;;;;;;0.60;0.60;;;7.00;99.90;;;;;;5052734;28;20228;-80
2024/02/22 02:24:10;;;;;;;0.85;0.85;;;6.80;99.90;;;;;;5052191;28;20262;-80
2024/02/22 02:26:37;;;;;;;2.05;1.67;;;6.80;99.90;;;;;;5018761;28;20258;-79
2024/02/22 02:29:04;;;;;;;1.00;1.00;;;6.80;99.90;;;;;;5044579;28;20200;-80
2024/02/22 02:31:31;;;;;;;2.47;2.35;;;7.10;99.90;;;;;;5065325;28;20235;-79
2024/02/22 02:33:58;;;;;;;0.95;0.95;;;7.00;99.90;;;;;;5056645;28;20293;-80
2024/02/22 02:36:25;;;;;;;1.15;1.08;;;7.00;99.90;;;;;;5057540;28;20212;-78
2024/02/22 02:38:52;;;;;;;9.30;1.85;;;7.10;99.90;;;;;;5052938;28;20268;-79
2024/02/22 02:41:19;;;;;;;0.50;0.50;;;7.30;99.90;;;;;;5054725;28;20204;-81
2024/02/22 02:43:46;;;;;;;1.58;1.48;;;7.10;99.90;;;;;;5053921;28;20208;-80
2024/02/22 02:46:14;;;;;;;0.70;0.70;;;7.20;99.90;;;;;;5039715;28;20235;-81
2024/02/22 02:48:41;;;;;;;0.50;0.50;;;7.10;99.90;;;;;;5048609;28;20229;-80
2024/02/22 02:51:08;;;;;;;1.45;1.35;;;7.00;99.90;;;;;;5052740;28;20204;-80
2024/02/22 02:53:35;;;;;;;0.50;0.50;;;7.00;99.90;;;;;;5040765;28;20400;-80
2024/02/22 02:56:02;;;;;;;1.98;1.75;;;7.00;99.90;;;;;;5043746;28;20512;-80
2024/02/22 02:58:29;;;;;;;0.60;0.60;;;7.20;99.90;;;;;;5048499;28;20411;-78
2024/02/22 03:00:56;;;;;;;1.98;1.38;;;7.20;99.90;;;;;;5048080;28;20600;-80
2024/02/22 03:03:23;;;;;;;0.80;0.80;;;7.10;99.90;;;;;;5054271;28;20258;-80
2024/02/22 03:05:50;;;;;;;0.75;0.75;;;7.00;99.90;;;;;;5054289;28;20200;-80
2024/02/22 03:08:17;;;;;;;0.50;0.50;;;7.20;99.90;;;;;;5052122;28;20204;-79
2024/02/22 03:10:44;;;;;;;1.00;1.00;;;7.20;99.90;;;;;;5057488;28;20226;-80
2024/02/22 03:13:11;;;;;;;0.50;0.50;;;7.20;99.90;;;;;;5052673;28;20214;-81
2024/02/22 03:15:38;;;;;;;0.50;0.50;;;7.30;99.90;;;;;;5056330;28;20239;-80
2024/02/22 03:18:07;;;;;;;0.60;0.60;;;7.30;99.90;;;;;;5040487;28;20576;-82
2024/02/22 03:20:34;;;;;;;1.48;1.25;;;7.30;99.90;;;;;;5040824;28;20517;-80
2024/02/22 03:23:02;;;;;;;0.60;0.60;;;7.10;99.90;;;;;;5053919;28;20452;-81
2024/02/22 03:25:29;;;;;;;0.98;0.98;;;7.30;99.90;;;;;;5032560;28;20240;-80
2024/02/22 03:27:58;;;;;;;0.50;0.50;;;7.40;99.90;;;;;;5058857;28;20235;-80
2024/02/22 03:30:27;;;;;;;0.50;0.50;;;7.50;99.90;;;;;;5054420;28;20208;-79
2024/02/22 03:32:54;;;;;;;0.63;0.63;;;7.50;99.90;;;;;;5058646;28;20216;-82
2024/02/22 03:35:22;;;;;;;0.68;0.68;;;7.60;99.90;;;;;;5046937;28;20220;-80
2024/02/22 03:37:50;;;;;;;1.60;1.60;;;7.50;99.90;;;;;;5060389;28;20200;-80
2024/02/22 03:40:18;;;;;;;0.70;0.70;;;7.60;99.90;;;;;;5051863;28;20268;-79
2024/02/22 03:42:45;;;;;;;1.08;0.98;;;7.70;99.90;;;;;;5049966;28;20199;-80
2024/02/22 03:45:12;;;;;;;0.50;0.50;;;7.50;99.90;;;;;;5049862;28;20500;-80
2024/02/22 03:47:39;;;;;;;0.50;0.50;;;7.50;99.90;;;;;;5034490;28;20256;-80
2024/02/22 03:50:06;;;;;;;0.80;0.80;;;7.40;99.90;;;;;;5054496;28;20218;-80
2024/02/22 03:52:33;;;;;;;0.50;0.50;;;7.30;99.90;;;;;;5034325;28;20215;-79
2024/02/22 03:55:02;;;;;;;0.50;0.50;;;7.30;99.90;;;;;;5049934;28;20204;-79
2024/02/22 03:57:29;;;;;;;0.70;0.70;;;7.30;99.90;;;;;;5045280;28;20246;-81
2024/02/22 03:59:56;;;;;;;0.50;0.50;;;7.10;99.90;;;;;;5039422;28;20500;-80
2024/02/22 04:02:24;;;;;;;1.30;1.13;;;7.20;99.90;;;;;;5052529;28;20562;-79
2024/02/22 04:04:53;;;;;;;0.63;0.60;;;7.30;99.90;;;;;;5055910;28;20266;-80
2024/02/22 04:07:23;;;;;;;0.50;0.50;;;7.20;99.90;;;;;;5049618;28;20229;-80
2024/02/22 04:09:51;;;;;;;0.50;0.50;;;7.30;99.90;;;;;;5046322;28;20214;-80
2024/02/22 04:12:19;;;;;;;0.55;0.55;;;7.10;99.90;;;;;;5047498;28;20287;-80
2024/02/22 04:14:46;;;;;;;0.80;0.80;;;7.20;99.90;;;;;;5058386;28;20526;-80
2024/02/22 04:17:13;;;;;;;1.90;1.80;;;7.10;99.90;;;;;;5046494;28;20216;-81
2024/02/22 04:19:40;;;;;;;1.13;1.13;;;7.20;99.90;;;;;;5046824;28;20203;-81
2024/02/22 04:22:07;;;;;;;0.68;0.60;;;7.10;99.90;;;;;;5040604;28;20227;-81
2024/02/22 04:24:35;;;;;;;0.50;0.50;;;7.40;99.90;;;;;;5059169;28;20234;-82
2024/02/22 04:27:03;;;;;;;0.50;0.50;;;7.20;99.90;;;;;;5053616;28;20235;-82
2024/02/22 04:29:30;;;;;;;1.05;1.02;;;7.20;99.90;;;;;;5049449;28;20275;-80
2024/02/22 04:31:57;;;;;;;0.50;0.50;;;7.30;99.90;;;;;;5042406;28;20216;-80
2024/02/22 04:34:24;;;;;;;1.02;1.02;;;7.30;99.90;;;;;;5033832;28;20251;-78
2024/02/22 04:36:51;;;;;;;0.57;0.57;;;7.30;99.90;;;;;;5054179;28;20218;-81
2024/02/22 04:39:18;;;;;;;0.60;0.60;;;7.40;99.90;;;;;;5052275;28;20267;-81
2024/02/22 04:41:45;;;;;;;1.35;1.35;;;7.40;99.90;;;;;;5056447;28;20210;-78
2024/02/22 04:44:12;;;;;;;2.40;1.77;;;7.50;99.90;;;;;;5054670;28;20311;-82
2024/02/22 04:46:39;;;;;;;1.15;1.15;;;7.50;99.90;;;;;;5048947;28;20235;-80
2024/02/22 04:49:09;;;;;;;0.60;0.60;;;7.40;99.90;;;;;;5035449;28;20531;-80
2024/02/22 04:51:37;;;;;;;0.60;0.60;;;7.50;99.90;;;;;;5028087;28;20216;-82
2024/02/22 04:54:04;;;;;;;0.50;0.50;;;7.40;99.90;;;;;;5037004;28;20209;-80
2024/02/22 04:56:30;;;;;;;0.60;0.60;;;7.40;99.90;;;;;;5035983;28;20219;-80
2024/02/22 04:58:58;;;;;;;0.43;0.43;;;7.40;99.90;;;;;;5055745;28;20209;-81
2024/02/22 05:01:28;;;;;;;0.50;0.50;;;7.50;99.90;;;;;;5055044;28;20196;-81
2024/02/22 05:03:56;;;;;;;0.50;0.50;;;7.40;99.90;;;;;;5050169;28;20210;-80
2024/02/22 05:06:23;;;;;;;0.50;0.50;;;7.40;99.90;;;;;;5033296;28;20219;-79
2024/02/22 05:08:50;;;;;;;0.50;0.50;;;7.30;99.90;;;;;;5026277;28;20209;-80
2024/02/22 05:11:17;;;;;;;1.40;1.38;;;7.40;99.90;;;;;;5035230;28;20276;-78
2024/02/22 05:13:44;;;;;;;6.45;2.00;;;7.40;99.90;;;;;;5034290;28;20327;-80
2024/02/22 05:16:11;;;;;;;0.88;0.88;;;7.30;99.90;;;;;;5038230;28;20204;-80
2024/02/22 05:18:38;;;;;;;0.50;0.50;;;7.40;99.90;;;;;;5044508;28;20196;-81
2024/02/22 05:21:05;;;;;;;0.60;0.60;;;7.40;99.90;;;;;;5054131;28;20192;-80
2024/02/22 05:23:33;;;;;;;1.30;1.30;;;7.40;99.90;;;;;;5043187;28;20210;-79
2024/02/22 05:26:00;;;;;;;0.50;0.50;;;7.50;99.90;;;;;;5032248;28;20248;-80
2024/02/22 05:28:27;;;;;;;0.95;0.95;;;7.60;99.90;;;;;;5038111;28;20255;-80
2024/02/22 05:30:54;;;;;;;0.50;0.50;;;7.60;99.90;;;;;;5041154;28;20200;-79
2024/02/22 05:33:21;;;;;;;0.80;0.80;;;7.60;99.90;;;;;;5036905;28;20232;-80
2024/02/22 05:35:48;;;;;;;9.98;4.57;;;7.70;99.90;;;;;;5034493;28;20462;-79
2024/02/22 05:38:15;;;;;;;1.08;1.08;;;7.70;99.90;;;;;;5037361;28;20229;-80
2024/02/22 05:40:42;;;;;;;3.92;3.60;;;7.60;99.90;;;;;;5035848;28;20204;-81
2024/02/22 05:43:10;;;;;;;1.00;1.00;;;7.60;99.90;;;;;;5047968;28;20270;-80
2024/02/22 05:45:45;;;;;;;0.50;0.50;;;7.60;99.90;;;;;;5042760;28;20465;-80
2024/02/22 05:48:13;;;;;;;1.58;1.52;;;7.80;99.90;;;;;;5050172;28;20250;-81
2024/02/22 05:50:40;;;;;;;0.50;0.50;;;7.80;99.90;;;;;;5050318;28;20435;-78
2024/02/22 05:53:09;;;;;;;0.60;0.60;;;7.70;99.90;;;;;;5036337;28;20208;-79
2024/02/22 05:55:36;;;;;;;1.02;1.02;;;7.70;99.90;;;;;;5044528;28;20214;-81
2024/02/22 05:58:04;;;;;;;0.93;0.93;;;7.80;99.90;;;;;;5042639;28;20205;-79
2024/02/22 06:00:32;;;;;;;2.17;1.85;;;7.80;99.90;;;;;;5039826;28;20438;-79
2024/02/22 06:02:59;;;;;;;3.22;2.08;;;7.60;99.90;;;;;;5041272;28;20204;-80
2024/02/22 06:05:28;;;;;;;0.50;0.50;;;7.80;99.90;;;;;;5043710;28;20481;-80
2024/02/22 06:07:55;;;;;;;0.70;0.70;;;7.80;99.90;;;;;;5042281;28;20255;-81
2024/02/22 06:10:24;;;;;;;0.95;0.95;;;7.80;99.90;;;;;;5042090;28;20212;-80
2024/02/22 06:12:51;;;;;;;0.77;0.77;;;7.80;99.90;;;;;;5039390;28;20369;-79
2024/02/22 06:15:18;;;;;;;1.48;0.85;;;7.80;99.90;;;;;;5047923;28;20563;-81
2024/02/22 06:17:45;;;;;;;0.65;0.65;;;7.70;99.90;;;;;;5035947;28;20205;-81
2024/02/22 06:20:12;;;;;;;0.50;0.50;;;7.70;99.90;;;;;;5030598;28;20243;-81
2024/02/22 06:22:39;;;;;;;0.60;0.60;;;7.70;99.90;;;;;;5044387;28;20207;-80
2024/02/22 06:25:07;;;;;;;0.60;0.60;;;7.80;99.90;;;;;;5040892;28;20209;-79
2024/02/22 06:27:34;;;;;;;1.30;1.30;;;7.70;99.90;;;;;;5044804;28;20232;-79
2024/02/22 06:30:04;;;;;;;0.50;0.50;;;7.70;99.90;;;;;;5052470;28;20232;-80
2024/02/22 06:32:34;;;;;;;0.80;0.80;;;7.80;99.90;;;;;;5047414;28;20282;-80
2024/02/22 06:35:02;;;;;;;0.50;0.50;;;7.90;99.90;;;;;;5033762;28;20276;-80
2024/02/22 06:37:29;;;;;;;1.00;1.00;;;7.70;99.90;;;;;;5039248;28;20208;-79
2024/02/22 06:39:56;;;;;;;0.50;0.50;;;7.80;99.90;;;;;;5038387;28;20270;-79
2024/02/22 06:42:23;;;;;;;4.43;2.15;;;7.80;99.90;;;;;;5037825;28;20520;-80
2024/02/22 06:44:51;;;;;;;0.70;0.70;;;7.90;99.90;;;;;;5050147;28;20204;-81
2024/02/22 06:47:20;;;;;;;0.60;0.60;;;8.00;99.90;;;;;;5038839;28;20251;-81
2024/02/22 06:49:48;;;;;;;0.50;0.50;;;8.00;99.90;;;;;;5054280;28;20223;-81
2024/02/22 06:52:15;;;;;;;4.28;1.25;;;8.10;99.90;;;;;;5040085;28;20209;-79
2024/02/22 06:54:42;;;;;;;1.52;1.52;;;8.10;99.90;;;;;;5043710;28;20205;-81
2024/02/22 06:57:09;;;;;;;0.50;0.50;;;8.10;99.90;;;;;;5039772;28;20255;-81
2024/02/22 06:59:36;;;;;;;0.70;0.70;;;8.40;99.90;;;;;;5056337;28;20291;-79
2024/02/22 07:02:05;;;;;;;0.55;0.55;;;8.30;99.90;;;;;;5046207;28;20232;-79
2024/02/22 07:04:32;;;;;;;0.70;0.70;;;8.40;99.90;;;;;;5035952;28;20196;-78
2024/02/22 07:06:59;;;;;;;0.60;0.60;;;8.40;99.90;;;;;;5058806;28;20515;-80
2024/02/22 07:09:26;;;;;;;0.50;0.50;;;8.20;99.90;;;;;;5056612;28;20210;-81
2024/02/22 07:11:57;;;;;;;0.50;0.50;;;8.40;99.90;;;;;;5038171;28;20212;-80
2024/02/22 07:14:24;;;;;;;0.50;0.50;;;8.50;99.90;;;;;;5050428;28;20504;-79
2024/02/22 07:16:51;;;;;;;0.60;0.60;;;8.60;99.90;;;;;;5039010;28;20205;-78
2024/02/22 07:19:18;;;;;;;0.93;0.93;;;8.60;99.90;;;;;;5040299;28;20205;-80
2024/02/22 07:21:45;;;;;;;0.90;0.90;;;8.80;99.90;;;;;;5045834;28;20466;-79
2024/02/22 07:24:12;;;;;;;0.60;0.60;;;8.90;99.90;;;;;;5045582;28;20279;-80
2024/02/22 07:26:39;;;;;;;0.50;0.50;;;9.00;99.90;;;;;;5048111;28;20217;-80
2024/02/22 07:29:06;;;;;;;0.50;0.50;;;9.00;99.90;;;;;;5041774;28;20255;-82
2024/02/22 07:31:38;;;;;;;0.60;0.60;;;9.10;99.90;;;;;;5050072;28;20294;-80
2024/02/22 07:34:05;;;;;;;0.60;0.60;;;9.30;99.90;;;;;;5044176;28;20512;-81
2024/02/22 07:36:32;;;;;;;0.40;0.40;;;9.10;99.90;;;;;;5043043;28;20247;-80
2024/02/22 07:39:01;;;;;;;0.70;0.70;;;9.10;99.90;;;;;;5038010;28;20558;-80
2024/02/22 07:41:28;;;;;;;0.60;0.60;;;9.00;99.90;;;;;;5049250;28;20550;-78
2024/02/22 07:43:56;;;;;;;0.50;0.50;;;8.90;99.90;;;;;;5046060;28;20204;-80
2024/02/22 07:46:24;;;;;;;0.50;0.50;;;8.90;99.90;;;;;;5049266;28;20254;-79
2024/02/22 07:48:51;;;;;;;0.50;0.50;;;9.30;99.90;;;;;;5045163;28;20259;-80
2024/02/22 07:51:18;;;;;;;1.35;1.25;;;9.10;99.90;;;;;;5042964;28;20254;-79
2024/02/22 07:53:45;;;;;;;0.60;0.60;;;9.10;99.90;;;;;;5044125;28;20215;-80
2024/02/22 07:56:12;;;;;;;0.70;0.70;;;9.10;99.90;;;;;;5047220;28;20204;-79
2024/02/22 07:58:46;;;;;;;2.15;2.05;;;9.20;99.90;;;;;;5045420;28;20214;-79
2024/02/22 08:01:14;;;;;;;0.60;0.60;;;9.40;99.90;;;;;;5044959;28;20267;-79
2024/02/22 08:03:43;;;;;;;0.60;0.60;;;9.30;99.90;;;;;;5032446;28;20205;-81
2024/02/22 08:06:11;;;;;;;1.00;1.00;;;9.10;99.90;;;;;;5037270;28;20204;-81
2024/02/22 08:08:39;;;;;;;1.05;1.05;;;9.40;99.90;;;;;;5050650;28;20232;-80
2024/02/22 08:11:06;;;;;;;0.50;0.50;;;9.50;99.90;;;;;;5038672;28;20389;-81
2024/02/22 08:13:34;;;;;;;0.50;0.50;;;9.50;99.90;;;;;;5036318;28;20525;-80
2024/02/22 08:16:06;;;;;;;0.93;0.93;;;9.50;99.90;;;;;;5056846;28;20226;-80
2024/02/22 08:18:33;;;;;;;1.33;1.25;;;9.50;99.90;;;;;;5049475;28;20251;-79
2024/02/22 08:21:01;;;;;;;0.60;0.60;;;9.40;99.90;;;;;;5054982;28;20223;-81
2024/02/22 08:23:29;;;;;;;0.75;0.75;;;9.50;99.90;;;;;;5046140;28;20250;-81
2024/02/22 08:25:56;;;;;;;0.60;0.60;;;9.30;99.90;;;;;;5046337;28;20497;-80
2024/02/22 08:28:24;;;;;;;0.50;0.50;;;9.30;99.90;;;;;;5048719;28;20247;-80
2024/02/22 08:30:51;;;;;;;0.50;0.50;;;9.40;99.90;;;;;;5039535;28;20426;-80
2024/02/22 08:33:19;;;;;;;8.57;1.05;;;9.30;99.90;;;;;;5051480;28;20506;-81
2024/02/22 08:35:46;;;;;;;0.50;0.50;;;9.40;99.90;;;;;;5046984;28;20215;-80
2024/02/22 08:38:13;;;;;;;1.02;1.02;;;9.40;99.90;;;;;;5055496;28;20200;-79
2024/02/22 08:40:40;;;;;;;1.00;1.00;;;9.40;99.90;;;;;;5051377;28;20275;-78
2024/02/22 08:43:08;;;;;;;0.60;0.60;;;9.40;99.90;;;;;;5048813;28;20505;-79
2024/02/22 08:45:36;;;;;;;0.50;0.50;;;9.40;99.90;;;;;;5047558;28;20196;-82
2024/02/22 08:48:03;;;;;;;0.90;0.90;;;9.40;99.90;;;;;;5048602;28;20239;-78
2024/02/22 08:50:30;;;;;;;0.93;0.93;;;9.50;99.90;;;;;;5049554;28;20208;-78
2024/02/22 08:52:57;;;;;;;1.00;1.00;;;9.60;99.90;;;;;;5050086;28;20200;-83
2024/02/22 08:55:25;;;;;;;0.65;0.65;;;9.80;99.90;;;;;;5058100;28;20261;-80
2024/02/22 08:57:53;;;;;;;0.50;0.50;;;9.60;99.90;;;;;;5045479;28;20245;-81
2024/02/22 09:00:23;;;;;;;2.17;2.05;;;9.60;99.90;;;;;;5042883;28;20208;-79
2024/02/22 09:02:53;;;;;;;0.60;0.60;;;9.50;99.90;;;;;;5054465;28;20255;-80
2024/02/22 09:05:20;;;;;;;0.50;0.50;;;9.50;99.90;;;;;;5039835;28;20204;-82
2024/02/22 09:07:49;;;;;;;0.50;0.50;;;9.50;99.90;;;;;;5038924;28;20242;-78
2024/02/22 09:10:17;;;;;;;0.50;0.50;;;9.40;99.90;;;;;;5045954;28;20201;-80
2024/02/22 09:12:45;;;;;;;0.50;0.50;;;9.40;99.90;;;;;;5040809;28;20231;-79
2024/02/22 09:15:12;;;;;;;0.60;0.60;;;9.40;99.90;;;;;;5040958;28;20681;-79
2024/02/22 09:17:39;;;;;;;0.57;0.57;;;9.20;99.90;;;;;;5040715;28;20228;-79
2024/02/22 09:20:06;;;;;;;0.98;0.95;;;9.30;99.90;;;;;;5043640;28;20213;-80
2024/02/22 09:22:34;;;;;;;1.13;1.13;;;9.30;99.90;;;;;;5034355;28;20508;-80
2024/02/22 09:25:06;;;;;;;0.50;0.50;;;9.20;99.90;;;;;;5051430;28;20208;-79
2024/02/22 09:27:36;;;;;;;0.50;0.50;;;9.10;99.90;;;;;;5041023;28;20204;-77
2024/02/22 09:30:04;;;;;;;0.50;0.50;;;9.00;99.90;;;;;;5047743;28;20196;-80
2024/02/22 09:32:31;;;;;;;0.50;0.50;;;9.00;99.90;;;;;;5045531;28;20320;-79
2024/02/22 09:34:59;;;;;;;1.05;1.05;;;9.00;99.90;;;;;;5039087;28;20207;-80
2024/02/22 09:37:27;;;;;;;4.20;1.67;;;9.00;99.90;;;;;;5051701;28;20204;-81
2024/02/22 09:39:54;;;;;;;0.60;0.60;;;9.00;99.90;;;;;;5046134;28;20220;-78
2024/02/22 09:42:27;;;;;;;0.80;0.80;;;9.00;99.90;;;;;;5042765;28;20322;-80
2024/02/22 09:44:55;;;;;;;0.85;0.80;;;9.10;99.90;;;;;;5052959;28;20242;-80
2024/02/22 09:47:23;;;;;;;0.60;0.60;;;9.10;99.90;;;;;;5052989;28;20642;-81
2024/02/22 09:49:51;;;;;;;1.30;1.23;;;9.00;99.90;;;;;;5049059;28;20287;-83
2024/02/22 09:52:21;;;;;;;0.65;0.65;;;9.10;99.90;;;;;;5054411;28;20216;-80
2024/02/22 09:54:49;;;;;;;0.50;0.50;;;9.10;99.90;;;;;;5043577;28;20231;-82
2024/02/22 09:57:16;;;;;;;0.60;0.60;;;9.00;99.90;;;;;;5054341;28;20204;-80
2024/02/22 09:59:50;;;;;;;0.73;0.60;;;9.10;99.90;;;;;;5036485;28;20211;-79
2024/02/22 10:02:18;;;;;;;2.03;1.92;;;9.10;99.90;;;;;;5043903;28;20197;-79
2024/02/22 10:04:56;;;;;;;2.33;2.15;;;9.20;99.90;;;;;;5041711;28;20208;-79
2024/02/22 10:07:31;;;;;;;2.55;1.95;;;9.00;99.90;;;;;;5039460;28;20208;-79
2024/02/22 10:09:59;;;;;;;0.50;0.50;;;9.20;99.90;;;;;;5033761;28;20327;-80
2024/02/22 10:12:30;;;;;;;0.50;0.50;;;9.30;99.90;;;;;;5056542;28;20503;-79
2024/02/22 10:14:59;;;;;;;0.60;0.60;;;9.10;99.90;;;;;;5039939;28;20212;-79
2024/02/22 10:17:29;;;;;;;0.50;0.50;;;9.00;99.90;;;;;;5047543;28;20214;-79
2024/02/22 10:20:00;;;;;;;1.30;1.30;;;9.00;99.90;;;;;;5033812;28;20253;-79
2024/02/22 10:22:28;;;;;;;0.50;0.50;;;9.00;99.90;;;;;;5049566;28;20208;-79
2024/02/22 10:25:12;;;;;;;0.50;0.50;;;9.00;99.90;;;;;;5055070;28;20600;-79
2024/02/22 10:27:46;;;;;;;0.50;0.50;;;9.00;99.90;;;;;;5048933;28;20210;-78
2024/02/22 10:30:14;;;;;;;0.50;0.50;;;8.90;99.90;;;;;;5053259;28;20267;-80
2024/02/22 10:32:42;;;;;;;0.50;0.50;;;8.90;99.90;;;;;;5042191;28;20226;-79
2024/02/22 10:35:11;;;;;;;0.50;0.50;;;8.80;99.90;;;;;;5051899;28;20384;-81
2024/02/22 10:37:39;;;;;;;0.50;0.50;;;8.80;99.90;;;;;;5038238;28;20235;-79
2024/02/22 10:40:09;;;;;;;0.50;0.50;;;8.80;99.90;;;;;;5043228;28;20208;-81
2024/02/22 10:42:38;;;;;;;0.63;0.63;;;8.80;99.90;;;;;;5041618;28;20236;-80
2024/02/22 10:45:07;;;;;;;0.88;0.88;;;8.80;99.90;;;;;;5037896;28;20444;-78
2024/02/22 10:47:37;;;;;;;0.60;0.60;;;8.80;99.90;;;;;;5038032;28;20234;-80
2024/02/22 10:50:07;;;;;;;0.90;0.90;;;8.90;99.90;;;;;;5049784;28;20239;-81
2024/02/22 10:52:41;;;;;;;2.75;2.65;;;9.00;99.90;;;;;;5041754;28;20201;-78
2024/02/22 10:55:13;;;;;;;0.70;0.70;;;9.00;99.90;;;;;;5044432;28;20559;-79
2024/02/22 10:57:44;;;;;;;1.88;1.77;;;9.20;99.90;;;;;;5038133;28;20231;-78
2024/02/22 11:00:12;;;;;;;0.50;0.50;;;9.20;99.90;;;;;;5033723;28;20212;-81
2024/02/22 11:02:41;;;;;;;0.50;0.50;;;9.40;99.90;;;;;;5043318;28;20207;-80
2024/02/22 11:05:11;;;;;;;0.50;0.50;;;9.40;99.90;;;;;;5032872;28;20204;-79
2024/02/22 11:07:52;;;;;;;0.70;0.70;;;9.40;99.90;;;;;;5040354;28;20262;-78
2024/02/22 11:10:20;;;;;;;0.50;0.50;;;9.40;99.90;;;;;;5046063;28;20208;-78
2024/02/22 11:12:47;;;;;;;0.55;0.55;;;9.40;99.90;;;;;;5038771;28;20271;-79
2024/02/22 11:15:15;;;;;;;0.63;0.63;;;9.40;99.90;;;;;;5040429;28;20204;-80
2024/02/22 11:17:58;;;;;;;1.02;0.98;;;9.30;99.90;;;;;;5044087;28;20216;-80
2024/02/22 11:20:36;;;;;;;0.98;0.98;;;9.60;99.90;;;;;;5035552;28;20214;-79
2024/02/22 11:23:13;;;;;;;0.50;0.50;;;9.70;99.90;;;;;;5044756;28;20234;-78
2024/02/22 11:25:41;;;;;;;1.13;1.13;;;9.70;99.90;;;;;;5046762;28;20488;-78
2024/02/22 11:28:09;;;;;;;2.22;2.10;;;9.80;99.90;;;;;;5043724;28;20264;-79
2024/02/22 11:30:37;;;;;;;0.60;0.60;;;9.80;99.90;;;;;;5044965;28;20200;-80
2024/02/22 11:33:04;;;;;;;0.50;0.50;;;9.70;99.90;;;;;;5046304;28;20560;-80
2024/02/22 11:35:31;;;;;;;0.60;0.60;;;9.90;99.90;;;;;;5052478;28;20208;-81
2024/02/22 11:38:03;;;;;;;0.50;0.50;;;9.80;99.90;;;;;;5049674;28;20210;-79
2024/02/22 11:40:34;;;;;;;0.80;0.80;;;9.90;99.90;;;;;;5049062;28;20278;-81
2024/02/22 11:43:02;;;;;;;0.68;0.68;;;10.00;99.90;;;;;;5033112;28;20261;-81
2024/02/22 11:45:31;;;;;;;0.88;0.88;;;10.10;99.90;;;;;;5039757;28;20213;-80
2024/02/22 11:47:58;;;;;;;0.60;0.60;;;10.10;99.90;;;;;;5038974;28;20278;-78
2024/02/22 11:50:28;;;;;;;1.00;1.00;;;10.10;99.90;;;;;;5038597;28;20244;-82
2024/02/22 11:52:58;;;;;;;0.50;0.50;;;10.10;99.90;;;;;;5030370;28;20258;-81
2024/02/22 11:55:26;;;;;;;1.08;1.08;;;10.20;99.90;;;;;;5051328;28;20208;-80
2024/02/22 11:57:53;;;;;;;1.05;1.05;;;10.10;99.90;;;;;;5032102;28;20204;-79
2024/02/22 12:00:20;;;;;;;2.08;1.98;;;10.00;99.90;;;;;;5038085;28;20232;-79
2024/02/22 12:02:47;;;;;;;0.70;0.70;;;10.10;99.90;;;;;;5040888;28;20241;-79
2024/02/22 12:05:17;;;;;;;0.73;0.73;;;10.20;99.90;;;;;;5021588;28;20211;-78
2024/02/22 12:07:46;;;;;;;0.50;0.50;;;10.20;99.90;;;;;;5050315;28;20194;-79
2024/02/22 12:10:13;;;;;;;0.50;0.50;;;10.20;99.90;;;;;;5044661;28;20304;-80
2024/02/22 12:12:40;;;;;;;0.65;0.65;;;10.10;99.90;;;;;;5046634;28;20260;-81
2024/02/22 12:15:07;;;;;;;0.80;0.80;;;10.20;99.90;;;;;;5044739;28;20224;-79
2024/02/22 12:17:38;;;;;;;0.90;0.90;;;10.10;99.90;;;;;;5050726;28;20200;-78
2024/02/22 12:20:06;;;;;;;0.70;0.70;;;10.10;99.90;;;;;;5052823;28;20222;-79
2024/02/22 12:22:34;;;;;;;0.60;0.60;;;10.00;99.90;;;;;;5043319;28;20207;-77
2024/02/22 12:25:01;;;;;;;0.80;0.80;;;10.10;99.90;;;;;;5052844;28;20212;-78
2024/02/22 12:27:28;;;;;;;1.67;1.30;;;10.20;99.90;;;;;;5042311;28;20319;-80
2024/02/22 12:29:57;;;;;;;0.85;0.85;;;10.10;99.90;;;;;;5040743;28;20252;-77
2024/02/22 12:32:24;;;;;;;0.70;0.70;;;10.00;99.90;;;;;;5041696;28;20200;-80
2024/02/22 12:34:52;;;;;;;0.90;0.90;;;10.00;99.90;;;;;;5049851;28;20381;-78
2024/02/22 12:37:20;;;;;;;0.60;0.60;;;10.00;99.90;;;;;;5056136;28;20279;-78
2024/02/22 12:39:50;;;;;;;1.20;1.20;;;10.00;99.90;;;;;;5050254;28;20219;-80
2024/02/22 12:42:17;;;;;;;0.80;0.80;;;10.20;99.90;;;;;;5052391;28;20481;-80
2024/02/22 12:44:44;;;;;;;0.70;0.70;;;10.00;99.90;;;;;;5051753;28;20208;-80
2024/02/22 12:47:12;;;;;;;0.70;0.70;;;10.00;99.90;;;;;;5045901;28;20228;-78
2024/02/22 12:49:40;;;;;;;0.57;0.57;;;10.10;99.90;;;;;;5046083;28;20287;-77
2024/02/22 12:52:07;;;;;;;1.05;0.98;;;10.00;99.90;;;;;;5043335;28;20267;-78
2024/02/22 12:54:35;;;;;;;0.93;0.93;;;10.10;99.90;;;;;;5038841;28;20201;-79
2024/02/22 12:57:02;;;;;;;0.60;0.60;;;10.10;99.90;;;;;;5044205;28;20197;-78
2024/02/22 12:59:29;;;;;;;0.70;0.70;;;10.20;99.90;;;;;;5043499;28;20236;-79
2024/02/22 13:01:56;;;;;;;1.90;1.80;;;10.10;99.90;;;;;;5043038;28;20211;-79
2024/02/22 13:04:23;;;;;;;1.60;1.50;;;10.20;99.90;;;;;;5042439;28;20275;-81
2024/02/22 13:06:50;;;;;;;0.70;0.70;;;10.20;99.90;;;;;;5043797;28;20272;-80
2024/02/22 13:09:17;;;;;;;0.60;0.60;;;10.10;99.90;;;;;;5043162;28;20284;-79
2024/02/22 13:11:44;;;;;;;0.70;0.70;;;10.00;99.90;;;;;;5050288;28;20294;-81
2024/02/22 13:14:11;;;;;;;0.70;0.60;;;10.00;99.90;;;;;;5049771;28;20210;-80
2024/02/22 13:16:38;;;;;;;1.38;1.35;;;10.10;99.90;;;;;;5053741;28;20209;-79
2024/02/22 13:19:06;;;;;;;0.60;0.60;;;10.00;99.90;;;;;;5047819;28;20200;-80
2024/02/22 13:21:33;;;;;;;3.70;1.15;;;10.10;99.90;;;;;;5055600;28;20199;-80
2024/02/22 13:24:00;;;;;;;0.95;0.95;;;10.10;99.90;;;;;;5045922;28;20516;-78
2024/02/22 13:26:28;;;;;;;0.95;0.95;;;10.10;99.90;;;;;;5039365;28;20205;-80